createdAt,value
2018-04-11T00:00:40.003Z,-52
2018-04-11T00:03:05.843Z,-52
2018-04-11T00:05:31.507Z,-52
2018-04-11T00:07:57.200Z,-52
2018-04-11T00:10:22.867Z,-53
2018-04-11T00:12:48.571Z,-53
2018-04-11T00:15:14.302Z,-52
2018-04-11T00:17:39.975Z,-53
2018-04-11T00:20:05.651Z,-53
2018-04-11T00:22:31.358Z,-54
2018-04-11T00:24:57.043Z,-53
2018-04-11T00:27:22.719Z,-54
2018-04-11T00:29:48.395Z,-53
2018-04-11T00:32:14.048Z,-53
2018-04-11T00:34:39.720Z,-53
2018-04-11T00:37:05.378Z,-53
2018-04-11T00:39:31.071Z,-52
2018-04-11T00:41:56.779Z,-52
2018-04-11T00:44:22.477Z,-53
2018-04-11T00:46:48.200Z,-53
2018-04-11T00:49:13.911Z,-53
2018-04-11T00:51:39.571Z,-52
2018-04-11T00:54:05.262Z,-53
2018-04-11T00:56:30.938Z,-52
2018-04-11T00:58:56.655Z,-52
2018-04-11T01:01:22.998Z,-53
2018-04-11T01:03:48.678Z,-53
2018-04-11T01:06:14.341Z,-52
2018-04-11T01:08:40.080Z,-53
2018-04-11T01:11:05.750Z,-52
2018-04-11T01:13:31.411Z,-53
2018-04-11T01:15:57.066Z,-53
2018-04-11T01:18:22.753Z,-53
2018-04-11T01:20:48.436Z,-53
2018-04-11T01:23:14.107Z,-52
2018-04-11T01:25:39.832Z,-52
2018-04-11T01:28:05.495Z,-52
2018-04-11T01:30:31.202Z,-53
2018-04-11T01:32:56.883Z,-53
2018-04-11T01:35:22.555Z,-53
2018-04-11T01:37:48.431Z,-53
2018-04-11T01:40:14.356Z,-52
2018-04-11T01:42:40.027Z,-52
2018-04-11T01:45:05.747Z,-53
2018-04-11T01:47:32.041Z,-52
2018-04-11T01:49:57.870Z,-52
2018-04-11T01:52:23.522Z,-53
2018-04-11T01:54:49.208Z,-52
2018-04-11T01:57:14.917Z,-52
2018-04-11T01:59:40.637Z,-53
2018-04-11T02:02:06.322Z,-54
2018-04-11T02:04:32.058Z,-52
2018-04-11T02:06:57.714Z,-53
2018-04-11T02:09:23.374Z,-53
2018-04-11T02:11:49.073Z,-54
2018-04-11T02:14:14.759Z,-53
2018-04-11T02:16:40.538Z,-53
2018-04-11T02:19:06.199Z,-52
2018-04-11T02:21:31.934Z,-54
2018-04-11T02:23:57.592Z,-54
2018-04-11T02:26:23.282Z,-52
2018-04-11T02:28:49.053Z,-53
2018-04-11T02:31:14.738Z,-52
2018-04-11T02:33:40.473Z,-52
2018-04-11T02:36:06.161Z,-53
2018-04-11T02:38:32.003Z,-53
2018-04-11T02:40:57.675Z,-54
2018-04-11T02:43:23.412Z,-53
2018-04-11T02:45:49.314Z,-53
2018-04-11T02:48:14.991Z,-52
2018-04-11T02:50:40.667Z,-53
2018-04-11T02:53:06.319Z,-52
2018-04-11T02:55:31.974Z,-52
2018-04-11T02:57:57.643Z,-52
2018-04-11T03:00:23.317Z,-52
2018-04-11T03:02:49.067Z,-52
2018-04-11T03:05:14.752Z,-53
2018-04-11T03:07:40.448Z,-52
2018-04-11T03:10:06.114Z,-52
2018-04-11T03:12:31.783Z,-52
2018-04-11T03:14:57.460Z,-52
2018-04-11T03:17:23.151Z,-53
2018-04-11T03:19:48.871Z,-52
2018-04-11T03:22:14.592Z,-52
2018-04-11T03:24:40.283Z,-53
2018-04-11T03:27:05.983Z,-53
2018-04-11T03:29:31.803Z,-54
2018-04-11T03:31:57.479Z,-53
2018-04-11T03:34:23.168Z,-53
2018-04-11T03:36:48.850Z,-54
2018-04-11T03:39:14.515Z,-52
2018-04-11T03:41:40.194Z,-54
2018-04-11T03:44:05.879Z,-54
2018-04-11T03:46:31.550Z,-54
2018-04-11T03:48:57.244Z,-54
2018-04-11T03:51:22.906Z,-54
2018-04-11T03:53:48.699Z,-53
2018-04-11T03:56:14.358Z,-52
2018-04-11T03:58:40.059Z,-54
2018-04-11T04:01:05.719Z,-53
2018-04-11T04:03:31.699Z,-53
2018-04-11T04:05:57.384Z,-52
2018-04-11T04:08:23.099Z,-52
2018-04-11T04:10:48.771Z,-53
2018-04-11T04:13:14.460Z,-53
2018-04-11T04:15:46.296Z,-53
2018-04-11T04:18:18.182Z,-52
2018-04-11T04:20:43.869Z,-52
2018-04-11T04:23:09.574Z,-51
2018-04-11T04:25:35.252Z,-52
2018-04-11T04:28:00.936Z,-53
2018-04-11T04:30:26.610Z,-54
2018-04-11T04:32:52.337Z,-53
2018-04-11T04:35:17.991Z,-56
2018-04-11T04:37:43.667Z,-53
2018-04-11T04:40:09.746Z,-52
2018-04-11T04:42:35.425Z,-52
2018-04-11T04:45:01.123Z,-53
2018-04-11T04:47:26.782Z,-52
2018-04-11T04:49:52.485Z,-52
2018-04-11T04:52:18.155Z,-55
2018-04-11T04:54:43.845Z,-52
2018-04-11T04:57:09.521Z,-53
2018-04-11T04:59:35.198Z,-52
2018-04-11T05:02:00.858Z,-53
2018-04-11T05:04:26.535Z,-52
2018-04-11T05:06:52.195Z,-53
2018-04-11T05:09:17.886Z,-53
2018-04-11T05:11:43.574Z,-52
2018-04-11T05:14:09.572Z,-53
2018-04-11T05:16:35.223Z,-52
2018-04-11T05:19:00.917Z,-53
2018-04-11T05:21:26.911Z,-54
2018-04-11T05:23:52.608Z,-53
2018-04-11T05:26:18.324Z,-56
2018-04-11T05:28:44.016Z,-53
2018-04-11T05:31:09.905Z,-53
2018-04-11T05:33:35.579Z,-52
2018-04-11T05:36:01.266Z,-52
2018-04-11T05:38:26.923Z,-53
2018-04-11T05:40:52.614Z,-53
2018-04-11T05:43:18.271Z,-55
2018-04-11T05:45:44.000Z,-53
2018-04-11T05:48:09.654Z,-52
2018-04-11T05:50:35.431Z,-52
2018-04-11T05:53:01.089Z,-52
2018-04-11T05:55:26.763Z,-52
2018-04-11T05:57:52.415Z,-53
2018-04-11T06:00:18.117Z,-51
2018-04-11T06:02:43.784Z,-51
2018-04-11T06:05:09.459Z,-51
2018-04-11T06:07:35.123Z,-51
2018-04-11T06:10:00.803Z,-51
2018-04-11T06:12:26.463Z,-51
2018-04-11T06:14:55.088Z,-51
2018-04-11T06:17:20.758Z,-51
2018-04-11T06:19:46.431Z,-52
2018-04-11T06:22:12.135Z,-51
2018-04-11T06:24:37.795Z,-51
2018-04-11T06:27:03.516Z,-52
2018-04-11T06:29:29.221Z,-50
2018-04-11T06:31:54.910Z,-51
2018-04-11T06:34:20.593Z,-52
2018-04-11T06:36:46.298Z,-51
2018-04-11T06:39:11.963Z,-51
2018-04-11T06:41:37.655Z,-51
2018-04-11T06:44:03.317Z,-52
2018-04-11T06:46:29.071Z,-51
2018-04-11T06:48:54.759Z,-51
2018-04-11T06:51:20.446Z,-51
2018-04-11T06:53:46.102Z,-51
2018-04-11T06:56:11.771Z,-52
2018-04-11T06:58:37.422Z,-51
2018-04-11T07:01:03.127Z,-51
2018-04-11T07:03:28.819Z,-52
2018-04-11T07:05:54.474Z,-52
2018-04-11T07:08:20.175Z,-52
2018-04-11T07:10:46.117Z,-51
2018-04-11T07:13:11.842Z,-51
2018-04-11T07:15:37.494Z,-51
2018-04-11T07:18:03.175Z,-51
2018-04-11T07:20:28.846Z,-51
2018-04-11T07:22:54.512Z,-52
2018-04-11T07:25:20.181Z,-51
2018-04-11T07:27:47.347Z,-52
2018-04-11T07:30:13.012Z,-51
2018-04-11T07:32:38.708Z,-51
2018-04-11T07:35:04.369Z,-51
2018-04-11T07:37:30.072Z,-54
2018-04-11T07:39:55.727Z,-52
2018-04-11T07:42:21.412Z,-52
2018-04-11T07:44:47.058Z,-51
2018-04-11T07:47:12.813Z,-51
2018-04-11T07:49:38.486Z,-51
2018-04-11T07:52:04.187Z,-51
2018-04-11T07:54:29.888Z,-51
2018-04-11T07:56:55.538Z,-51
2018-04-11T07:59:21.251Z,-51
2018-04-11T08:01:46.919Z,-51
2018-04-11T08:04:12.611Z,-51
2018-04-11T08:06:38.274Z,-51
2018-04-11T08:09:04.048Z,-51
2018-04-11T08:11:29.734Z,-51
2018-04-11T08:13:55.435Z,-51
2018-04-11T08:16:21.097Z,-50
2018-04-11T08:18:46.781Z,-50
2018-04-11T08:21:12.498Z,-51
2018-04-11T08:23:38.116Z,-51
2018-04-11T08:26:04.147Z,-51
2018-04-11T08:28:29.821Z,-52
2018-04-11T08:30:55.566Z,-52
2018-04-11T08:33:21.256Z,-50
2018-04-11T08:35:46.915Z,-52
2018-04-11T08:38:12.612Z,-52
2018-04-11T08:40:38.331Z,-51
2018-04-11T08:43:04.002Z,-51
2018-04-11T08:45:29.695Z,-51
2018-04-11T08:47:55.379Z,-52
2018-04-11T08:50:21.066Z,-51
2018-04-11T08:52:46.723Z,-51
2018-04-11T08:55:12.425Z,-51
2018-04-11T08:57:38.148Z,-51
2018-04-11T09:00:03.847Z,-53
2018-04-11T09:02:29.508Z,-52
2018-04-11T09:04:55.176Z,-51
2018-04-11T09:07:20.854Z,-52
2018-04-11T09:09:46.569Z,-52
2018-04-11T09:12:12.253Z,-52
2018-04-11T09:14:37.971Z,-51
2018-04-11T09:17:03.682Z,-51
2018-04-11T09:19:29.400Z,-54
2018-04-11T09:21:55.113Z,-54
2018-04-11T09:24:20.808Z,-54
2018-04-11T09:26:46.498Z,-52
2018-04-11T09:29:12.166Z,-51
2018-04-11T09:31:37.891Z,-51
2018-04-11T09:34:03.599Z,-52
2018-04-11T09:36:29.379Z,-52
2018-04-11T09:38:55.060Z,-52
2018-04-11T09:41:20.756Z,-52
2018-04-11T09:43:46.443Z,-51
2018-04-11T09:46:12.176Z,-51
2018-04-11T09:48:37.927Z,-52
2018-04-11T09:51:03.630Z,-52
2018-04-11T09:53:29.332Z,-51
2018-04-11T09:55:55.045Z,-52
2018-04-11T09:58:20.694Z,-52
2018-04-11T10:00:52.395Z,-52
2018-04-11T10:03:18.111Z,-51
2018-04-11T10:05:43.770Z,-52
2018-04-11T10:08:10.307Z,-51
2018-04-11T10:10:35.978Z,-51
2018-04-11T10:13:01.651Z,-51
2018-04-11T10:15:27.329Z,-51
2018-04-11T10:17:53.019Z,-52
2018-04-11T10:20:18.686Z,-51
2018-04-11T10:22:44.400Z,-52
2018-04-11T10:25:10.079Z,-51
2018-04-11T10:27:35.761Z,-51
2018-04-11T10:30:01.573Z,-51
2018-04-11T10:32:27.261Z,-51
2018-04-11T10:34:52.944Z,-52
2018-04-11T10:37:18.642Z,-52
2018-04-11T10:39:44.452Z,-52
2018-04-11T10:42:10.055Z,-52
2018-04-11T10:44:35.740Z,-52
2018-04-11T10:47:01.414Z,-52
2018-04-11T10:49:27.379Z,-52
2018-04-11T10:51:53.070Z,-52
2018-04-11T10:54:18.723Z,-52
2018-04-11T10:56:44.416Z,-52
2018-04-11T10:59:10.074Z,-52
2018-04-11T11:01:35.778Z,-52
2018-04-11T11:04:01.531Z,-52
2018-04-11T11:06:27.192Z,-52
2018-04-11T11:08:52.843Z,-52
2018-04-11T11:11:18.500Z,-52
2018-04-11T11:13:44.171Z,-52
2018-04-11T11:16:09.832Z,-52
2018-04-11T11:18:35.855Z,-52
2018-04-11T11:21:01.519Z,-52
2018-04-11T11:23:27.220Z,-52
2018-04-11T11:25:53.799Z,-51
2018-04-11T11:28:19.501Z,-52
2018-04-11T11:30:45.204Z,-52
2018-04-11T11:33:10.883Z,-52
2018-04-11T11:35:36.574Z,-52
2018-04-11T11:38:02.260Z,-51
2018-04-11T11:40:27.932Z,-52
2018-04-11T11:42:53.626Z,-52
2018-04-11T11:45:19.351Z,-52
2018-04-11T11:47:45.081Z,-51
2018-04-11T11:50:10.755Z,-51
2018-04-11T11:52:36.432Z,-51
2018-04-11T11:55:02.135Z,-51
2018-04-11T11:57:27.846Z,-51
2018-04-11T11:59:53.535Z,-51
2018-04-11T12:02:19.233Z,-51
2018-04-11T12:04:44.875Z,-51
2018-04-11T12:07:10.540Z,-51
2018-04-11T12:09:36.234Z,-51
2018-04-11T12:12:01.891Z,-51
2018-04-11T12:14:27.568Z,-51
2018-04-11T12:16:53.239Z,-50
2018-04-11T12:19:18.914Z,-50
2018-04-11T12:21:44.623Z,-52
2018-04-11T12:24:10.336Z,-52
2018-04-11T12:26:36.006Z,-52
2018-04-11T12:29:01.687Z,-52
2018-04-11T12:31:27.343Z,-52
2018-04-11T12:33:53.025Z,-52
2018-04-11T12:36:19.034Z,-52
2018-04-11T12:38:44.725Z,-52
2018-04-11T12:41:10.479Z,-53
2018-04-11T12:43:36.143Z,-52
2018-04-11T12:46:01.830Z,-49
2018-04-11T12:48:27.527Z,-50
2018-04-11T12:50:53.209Z,-51
2018-04-11T12:53:18.903Z,-51
2018-04-11T12:55:44.651Z,-51
2018-04-11T12:58:10.295Z,-52
2018-04-11T13:00:36.263Z,-52
2018-04-11T13:03:01.931Z,-52
2018-04-11T13:05:27.639Z,-52
2018-04-11T13:07:53.311Z,-52
2018-04-11T13:10:19.003Z,-52
2018-04-11T13:12:44.682Z,-51
2018-04-11T13:15:10.719Z,-52
2018-04-11T13:17:36.326Z,-51
2018-04-11T13:20:01.999Z,-52
2018-04-11T13:22:27.658Z,-52
2018-04-11T13:24:53.359Z,-52
2018-04-11T13:27:19.068Z,-51
2018-04-11T13:29:44.731Z,-51
2018-04-11T13:32:10.431Z,-51
2018-04-11T13:34:36.099Z,-51
2018-04-11T13:37:01.794Z,-51
2018-04-11T13:39:27.485Z,-51
2018-04-11T13:41:53.171Z,-51
2018-04-11T13:44:18.876Z,-50
2018-04-11T13:46:44.567Z,-51
2018-04-11T13:49:10.258Z,-51
2018-04-11T13:51:35.970Z,-51
2018-04-11T13:54:01.671Z,-51
2018-04-11T13:56:27.605Z,-51
2018-04-11T13:58:53.283Z,-51
2018-04-11T14:01:19.007Z,-52
2018-04-11T14:03:44.698Z,-50
2018-04-11T14:06:10.387Z,-51
2018-04-11T14:08:36.066Z,-51
2018-04-11T14:11:01.743Z,-51
2018-04-11T14:13:27.499Z,-51
2018-04-11T14:15:53.199Z,-51
2018-04-11T14:18:18.892Z,-51
2018-04-11T14:20:44.567Z,-51
2018-04-11T14:23:10.268Z,-51
2018-04-11T14:25:35.970Z,-51
2018-04-11T14:28:01.849Z,-51
2018-04-11T14:30:27.579Z,-52
2018-04-11T14:32:53.259Z,-51
2018-04-11T14:35:18.972Z,-51
2018-04-11T14:37:44.719Z,-51
2018-04-11T14:40:10.409Z,-51
2018-04-11T14:42:36.194Z,-52
2018-04-11T14:45:01.933Z,-52
2018-04-11T14:47:27.630Z,-51
2018-04-11T14:49:53.700Z,-52
2018-04-11T14:52:19.381Z,-52
2018-04-11T14:54:45.347Z,-50
2018-04-11T14:57:11.010Z,-51
2018-04-11T14:59:36.772Z,-50
2018-04-11T15:02:02.471Z,-50
2018-04-11T15:04:28.411Z,-52
2018-04-11T15:06:54.154Z,-51
2018-04-11T15:09:19.806Z,-51
2018-04-11T15:11:45.505Z,-52
2018-04-11T15:14:11.210Z,-52
2018-04-11T15:16:36.890Z,-51
2018-04-11T15:19:02.584Z,-51
2018-04-11T15:21:28.251Z,-51
2018-04-11T15:23:53.967Z,-51
2018-04-11T15:26:19.649Z,-52
2018-04-11T15:28:45.309Z,-51
2018-04-11T15:31:11.045Z,-52
2018-04-11T15:33:36.708Z,-52
2018-04-11T15:36:02.713Z,-52
2018-04-11T15:38:28.381Z,-52
2018-04-11T15:40:54.112Z,-52
2018-04-11T15:43:19.844Z,-52
2018-04-11T15:45:45.572Z,-52
2018-04-11T15:48:11.254Z,-52
2018-04-11T15:50:36.951Z,-51
2018-04-11T15:53:02.615Z,-52
2018-04-11T15:55:28.308Z,-53
2018-04-11T15:57:54.027Z,-52
2018-04-11T16:00:19.739Z,-51
2018-04-11T16:02:45.399Z,-51
2018-04-11T16:05:11.103Z,-51
2018-04-11T16:07:36.770Z,-52
2018-04-11T16:10:02.523Z,-51
2018-04-11T16:12:28.245Z,-51
2018-04-11T16:14:53.923Z,-51
2018-04-11T16:17:19.622Z,-51
2018-04-11T16:19:45.283Z,-51
2018-04-11T16:22:10.971Z,-52
2018-04-11T16:24:36.636Z,-51
2018-04-11T16:27:02.317Z,-51
2018-04-11T16:29:27.991Z,-51
2018-04-11T16:31:53.739Z,-51
2018-04-11T16:34:19.435Z,-51
2018-04-11T16:36:45.110Z,-52
2018-04-11T16:39:10.774Z,-51
2018-04-11T16:41:36.452Z,-50
2018-04-11T16:44:02.128Z,-51
2018-04-11T16:46:27.851Z,-51
2018-04-11T16:48:53.661Z,-51
2018-04-11T16:51:19.396Z,-51
2018-04-11T16:53:45.102Z,-51
2018-04-11T16:56:10.771Z,-51
2018-04-11T16:58:36.699Z,-51
2018-04-11T17:01:02.696Z,-50
2018-04-11T17:03:28.377Z,-50
2018-04-11T17:05:54.071Z,-51
2018-04-11T17:08:19.774Z,-50
2018-04-11T17:10:45.447Z,-51
2018-04-11T17:13:11.146Z,-51
2018-04-11T17:15:36.816Z,-51
2018-04-11T17:18:02.536Z,-51
2018-04-11T17:20:34.239Z,-52
2018-04-11T17:23:06.030Z,-51
2018-04-11T17:28:39.425Z,-50
2018-04-11T17:31:14.144Z,-51
2018-04-11T17:33:39.849Z,-50
2018-04-11T17:36:05.531Z,-51
2018-04-11T17:38:31.203Z,-51
2018-04-11T17:40:56.904Z,-51
2018-04-11T17:43:22.620Z,-50
2018-04-11T17:45:48.331Z,-50
2018-04-11T17:48:14.016Z,-50
2018-04-11T17:50:39.718Z,-51
2018-04-11T17:53:05.383Z,-51
2018-04-11T17:55:31.323Z,-50
2018-04-11T17:57:57.002Z,-51
2018-04-11T18:00:22.661Z,-51
2018-04-11T18:02:48.366Z,-51
2018-04-11T18:05:14.012Z,-51
2018-04-11T18:07:39.719Z,-51
2018-04-11T18:10:05.505Z,-51
2018-04-11T18:12:31.183Z,-51
2018-04-11T18:14:56.867Z,-51
2018-04-11T18:20:08.095Z,-51
2018-04-11T18:22:33.760Z,-51
2018-04-11T18:24:59.447Z,-51
2018-04-11T18:27:25.107Z,-51
2018-04-11T18:29:54.871Z,-53
2018-04-11T18:32:20.563Z,-52
2018-04-11T18:34:46.227Z,-54
2018-04-11T18:37:12.108Z,-53
2018-04-11T18:39:37.830Z,-51
2018-04-11T18:42:05.347Z,-53
2018-04-11T18:44:31.052Z,-52
2018-04-11T18:46:56.731Z,-52
2018-04-11T18:49:22.411Z,-51
2018-04-11T18:51:48.096Z,-52
2018-04-11T18:54:13.755Z,-52
2018-04-11T18:56:39.475Z,-52
2018-04-11T18:59:05.140Z,-51
2018-04-11T19:01:31.050Z,-51
2018-04-11T19:03:56.728Z,-51
2018-04-11T19:06:22.415Z,-51
2018-04-11T19:08:48.619Z,-51
2018-04-11T19:11:14.308Z,-51
2018-04-11T19:13:39.975Z,-51
2018-04-11T19:16:05.658Z,-51
2018-04-11T19:18:31.325Z,-52
2018-04-11T19:20:57.027Z,-51
2018-04-11T19:23:22.687Z,-52
2018-04-11T19:25:48.356Z,-51
2018-04-11T19:28:14.044Z,-51
2018-04-11T19:30:39.803Z,-52
2018-04-11T19:33:05.467Z,-51
2018-04-11T19:35:31.160Z,-51
2018-04-11T19:37:56.869Z,-51
2018-04-11T19:40:22.527Z,-51
2018-04-11T19:42:48.189Z,-51
2018-04-11T19:45:13.886Z,-52
2018-04-11T19:47:39.551Z,-53
2018-04-11T19:50:05.340Z,-52
2018-04-11T19:52:30.986Z,-53
2018-04-11T19:54:56.700Z,-52
2018-04-11T19:57:22.376Z,-53
2018-04-11T19:59:48.075Z,-53
2018-04-11T20:02:13.735Z,-53
2018-04-11T20:04:39.415Z,-52
2018-04-11T20:07:05.121Z,-49
2018-04-11T20:09:30.803Z,-50
2018-04-11T20:11:56.547Z,-51
2018-04-11T20:14:22.235Z,-50
2018-04-11T20:16:47.922Z,-50
2018-04-11T20:19:13.592Z,-50
2018-04-11T20:21:39.263Z,-50
2018-04-11T20:24:04.936Z,-50
2018-04-11T20:26:30.663Z,-50
2018-04-11T20:28:56.780Z,-50
2018-04-11T20:31:22.881Z,-49
2018-04-11T20:33:50.154Z,-49
2018-04-11T20:36:15.862Z,-49
2018-04-11T20:38:41.572Z,-49
2018-04-11T20:41:07.282Z,-50
2018-04-11T20:43:33.018Z,-50
2018-04-11T20:45:58.721Z,-50
2018-04-11T20:48:24.421Z,-51
2018-04-11T20:50:50.080Z,-51
2018-04-11T20:53:15.765Z,-51
2018-04-11T20:55:41.439Z,-51
2018-04-11T20:58:07.126Z,-51
2018-04-11T21:00:32.799Z,-51
2018-04-11T21:02:58.457Z,-50
2018-04-11T21:05:24.156Z,-51
2018-04-11T21:07:49.835Z,-51
2018-04-11T21:10:15.503Z,-49
2018-04-11T21:12:41.175Z,-49
2018-04-11T21:15:06.868Z,-50
2018-04-11T21:17:32.549Z,-51
2018-04-11T21:19:58.231Z,-52
2018-04-11T21:22:23.901Z,-52
2018-04-11T21:24:49.642Z,-52
2018-04-11T21:27:15.329Z,-53
2018-04-11T21:29:41.027Z,-53
2018-04-11T21:32:06.735Z,-53
2018-04-11T21:34:32.395Z,-55
2018-04-11T21:36:58.068Z,-52
2018-04-11T21:39:23.774Z,-51
2018-04-11T21:41:49.510Z,-52
2018-04-11T21:44:15.177Z,-53
2018-04-11T21:46:40.882Z,-52
2018-04-11T21:49:06.557Z,-51
2018-04-11T21:51:32.224Z,-51
2018-04-11T21:53:57.894Z,-51
2018-04-11T21:56:23.567Z,-51
2018-04-11T21:58:49.245Z,-52
2018-04-11T22:01:14.907Z,-52
2018-04-11T22:03:40.564Z,-51
2018-04-11T22:06:06.246Z,-51
2018-04-11T22:08:31.943Z,-51
2018-04-11T22:10:57.638Z,-51
2018-04-11T22:13:23.302Z,-52
2018-04-11T22:15:48.979Z,-51
2018-04-11T22:18:14.658Z,-51
2018-04-11T22:20:40.342Z,-51
2018-04-11T22:23:06.047Z,-52
2018-04-11T22:25:31.705Z,-51
2018-04-11T22:27:57.384Z,-52
2018-04-11T22:30:23.040Z,-51
2018-04-11T22:32:48.743Z,-51
2018-04-11T22:35:14.423Z,-51
2018-04-11T22:37:40.082Z,-51
2018-04-11T22:40:05.779Z,-52
2018-04-11T22:42:31.466Z,-54
2018-04-11T22:44:57.139Z,-53
2018-04-11T22:47:22.838Z,-52
2018-04-11T22:49:48.535Z,-52
2018-04-11T22:52:14.219Z,-52
2018-04-11T22:54:39.928Z,-52
2018-04-11T22:57:05.599Z,-51
2018-04-11T22:59:31.331Z,-52
2018-04-11T23:01:57.359Z,-51
2018-04-11T23:04:23.044Z,-52
2018-04-11T23:06:48.771Z,-52
2018-04-11T23:09:14.433Z,-53
2018-04-11T23:11:40.123Z,-52
2018-04-11T23:14:05.804Z,-53
2018-04-11T23:16:31.502Z,-54
2018-04-11T23:18:57.183Z,-53
2018-04-11T23:21:22.861Z,-51
2018-04-11T23:23:48.565Z,-52
2018-04-11T23:26:14.231Z,-51
2018-04-11T23:28:39.908Z,-51
2018-04-11T23:31:05.617Z,-51
2018-04-11T23:36:28.141Z,-54
2018-04-11T23:38:53.826Z,-51
2018-04-11T23:41:19.535Z,-51
2018-04-11T23:43:45.210Z,-51
2018-04-11T23:46:11.131Z,-51
2018-04-11T23:48:36.811Z,-52
2018-04-11T23:51:02.495Z,-51
2018-04-11T23:53:28.158Z,-52
2018-04-11T23:55:53.839Z,-52
2018-04-11T23:58:19.514Z,-51
